sensor_id;sensor_type;location;lat;lon;timestamp;P1;durP1;ratioP1;P2;durP2;ratioP2
20104;SDS011;10212;42.714;23.310;2022-08-18T00:02:43;11.33;;;6.57;;
20104;SDS011;10212;42.714;23.310;2022-08-18T00:07:43;8.32;;;7.00;;
20104;SDS011;10212;42.714;23.310;2022-08-18T00:12:44;10.77;;;6.93;;
20104;SDS011;10212;42.714;23.310;2022-08-18T00:17:45;11.25;;;6.93;;
20104;SDS011;10212;42.714;23.310;2022-08-18T00:22:46;12.75;;;7.28;;
20104;SDS011;10212;42.714;23.310;2022-08-18T00:27:47;9.13;;;6.25;;
20104;SDS011;10212;42.714;23.310;2022-08-18T00:32:50;8.52;;;7.07;;
20104;SDS011;10212;42.714;23.310;2022-08-18T00:37:53;11.80;;;7.20;;
20104;SDS011;10212;42.714;23.310;2022-08-18T00:42:56;7.65;;;6.10;;
20104;SDS011;10212;42.714;23.310;2022-08-18T00:47:58;10.90;;;6.23;;
20104;SDS011;10212;42.714;23.310;2022-08-18T00:53:06;10.13;;;6.25;;
20104;SDS011;10212;42.714;23.310;2022-08-18T00:58:15;8.25;;;6.32;;
20104;SDS011;10212;42.714;23.310;2022-08-18T01:03:39;8.55;;;6.35;;
20104;SDS011;10212;42.714;23.310;2022-08-18T01:13:43;10.27;;;6.70;;
20104;SDS011;10212;42.714;23.310;2022-08-18T01:18:44;6.78;;;5.65;;
20104;SDS011;10212;42.714;23.310;2022-08-18T01:24:03;9.25;;;6.50;;
20104;SDS011;10212;42.714;23.310;2022-08-18T01:34:10;9.45;;;6.93;;
20104;SDS011;10212;42.714;23.310;2022-08-18T01:39:11;10.77;;;7.65;;
20104;SDS011;10212;42.714;23.310;2022-08-18T01:44:12;9.98;;;7.65;;
20104;SDS011;10212;42.714;23.310;2022-08-18T01:49:13;10.35;;;7.65;;
20104;SDS011;10212;42.714;23.310;2022-08-18T01:54:13;9.52;;;7.82;;
20104;SDS011;10212;42.714;23.310;2022-08-18T01:59:14;9.65;;;7.90;;
20104;SDS011;10212;42.714;23.310;2022-08-18T02:04:15;12.77;;;8.20;;
20104;SDS011;10212;42.714;23.310;2022-08-18T02:09:16;9.57;;;7.95;;
20104;SDS011;10212;42.714;23.310;2022-08-18T02:14:17;11.25;;;8.13;;
20104;SDS011;10212;42.714;23.310;2022-08-18T02:19:18;11.27;;;8.33;;
20104;SDS011;10212;42.714;23.310;2022-08-18T02:24:18;10.52;;;8.73;;
20104;SDS011;10212;42.714;23.310;2022-08-18T02:29:19;9.52;;;8.32;;
20104;SDS011;10212;42.714;23.310;2022-08-18T02:34:19;9.65;;;8.35;;
20104;SDS011;10212;42.714;23.310;2022-08-18T02:39:20;12.73;;;8.75;;
20104;SDS011;10212;42.714;23.310;2022-08-18T02:50:19;9.60;;;8.00;;
20104;SDS011;10212;42.714;23.310;2022-08-18T02:55:20;11.00;;;8.25;;
20104;SDS011;10212;42.714;23.310;2022-08-18T03:00:22;10.27;;;8.27;;
20104;SDS011;10212;42.714;23.310;2022-08-18T03:05:23;12.52;;;8.93;;
20104;SDS011;10212;42.714;23.310;2022-08-18T03:10:23;9.68;;;8.75;;
20104;SDS011;10212;42.714;23.310;2022-08-18T03:15:24;10.95;;;9.05;;
20104;SDS011;10212;42.714;23.310;2022-08-18T03:20:25;11.18;;;8.75;;
20104;SDS011;10212;42.714;23.310;2022-08-18T03:25:25;11.43;;;9.00;;
20104;SDS011;10212;42.714;23.310;2022-08-18T03:30:26;12.05;;;8.15;;
20104;SDS011;10212;42.714;23.310;2022-08-18T03:35:27;13.17;;;8.80;;
20104;SDS011;10212;42.714;23.310;2022-08-18T03:40:27;11.75;;;8.93;;
20104;SDS011;10212;42.714;23.310;2022-08-18T03:45:27;10.95;;;9.32;;
20104;SDS011;10212;42.714;23.310;2022-08-18T03:50:31;13.05;;;9.38;;
20104;SDS011;10212;42.714;23.310;2022-08-18T03:55:31;14.07;;;9.95;;
20104;SDS011;10212;42.714;23.310;2022-08-18T04:00:32;10.73;;;9.38;;
20104;SDS011;10212;42.714;23.310;2022-08-18T04:05:39;12.32;;;10.10;;
20104;SDS011;10212;42.714;23.310;2022-08-18T04:10:42;14.30;;;10.53;;
20104;SDS011;10212;42.714;23.310;2022-08-18T04:15:43;18.33;;;11.30;;
20104;SDS011;10212;42.714;23.310;2022-08-18T04:20:43;12.25;;;10.32;;
20104;SDS011;10212;42.714;23.310;2022-08-18T04:25:45;16.10;;;13.05;;
20104;SDS011;10212;42.714;23.310;2022-08-18T04:30:54;21.63;;;13.65;;
20104;SDS011;10212;42.714;23.310;2022-08-18T04:40:59;17.60;;;13.80;;
20104;SDS011;10212;42.714;23.310;2022-08-18T04:45:59;13.95;;;12.50;;
20104;SDS011;10212;42.714;23.310;2022-08-18T04:51:12;14.90;;;11.05;;
20104;SDS011;10212;42.714;23.310;2022-08-18T05:01:29;16.90;;;12.52;;
20104;SDS011;10212;42.714;23.310;2022-08-18T05:06:34;19.15;;;11.35;;
20104;SDS011;10212;42.714;23.310;2022-08-18T05:11:35;17.95;;;11.50;;
20104;SDS011;10212;42.714;23.310;2022-08-18T05:16:37;12.27;;;10.27;;
20104;SDS011;10212;42.714;23.310;2022-08-18T05:21:39;20.00;;;11.15;;
20104;SDS011;10212;42.714;23.310;2022-08-18T05:26:42;12.40;;;10.65;;
20104;SDS011;10212;42.714;23.310;2022-08-18T05:31:44;18.17;;;10.82;;
20104;SDS011;10212;42.714;23.310;2022-08-18T05:57:54;15.48;;;10.10;;
20104;SDS011;10212;42.714;23.310;2022-08-18T06:03:00;15.00;;;10.32;;
20104;SDS011;10212;42.714;23.310;2022-08-18T06:08:09;15.63;;;11.07;;
20104;SDS011;10212;42.714;23.310;2022-08-18T06:13:12;15.55;;;10.10;;
20104;SDS011;10212;42.714;23.310;2022-08-18T06:23:23;19.90;;;11.47;;
20104;SDS011;10212;42.714;23.310;2022-08-18T06:39:23;16.90;;;10.63;;
20104;SDS011;10212;42.714;23.310;2022-08-18T06:44:37;18.60;;;10.55;;
20104;SDS011;10212;42.714;23.310;2022-08-18T06:55:09;16.92;;;9.77;;
20104;SDS011;10212;42.714;23.310;2022-08-18T07:05:18;15.32;;;8.90;;
20104;SDS011;10212;42.714;23.310;2022-08-18T07:10:28;18.95;;;9.10;;
20104;SDS011;10212;42.714;23.310;2022-08-18T07:15:28;19.48;;;8.88;;
20104;SDS011;10212;42.714;23.310;2022-08-18T07:20:31;12.77;;;7.43;;
20104;SDS011;10212;42.714;23.310;2022-08-18T07:26:36;14.07;;;7.20;;
20104;SDS011;10212;42.714;23.310;2022-08-18T07:36:40;15.13;;;6.90;;
20104;SDS011;10212;42.714;23.310;2022-08-18T07:41:51;12.20;;;6.93;;
20104;SDS011;10212;42.714;23.310;2022-08-18T07:47:02;12.40;;;7.13;;
20104;SDS011;10212;42.714;23.310;2022-08-18T07:52:07;10.98;;;6.72;;
20104;SDS011;10212;42.714;23.310;2022-08-18T07:57:20;10.23;;;6.38;;
20104;SDS011;10212;42.714;23.310;2022-08-18T08:08:01;12.98;;;6.60;;
20104;SDS011;10212;42.714;23.310;2022-08-18T08:13:11;15.07;;;6.32;;
20104;SDS011;10212;42.714;23.310;2022-08-18T08:18:19;11.32;;;6.75;;
20104;SDS011;10212;42.714;23.310;2022-08-18T08:23:51;7.97;;;6.40;;
20104;SDS011;10212;42.714;23.310;2022-08-18T08:44:44;7.78;;;5.00;;
20104;SDS011;10212;42.714;23.310;2022-08-18T08:49:51;6.32;;;4.80;;
20104;SDS011;10212;42.714;23.310;2022-08-18T08:54:57;11.65;;;4.72;;
20104;SDS011;10212;42.714;23.310;2022-08-18T09:00:08;8.90;;;5.07;;
20104;SDS011;10212;42.714;23.310;2022-08-18T09:15:52;7.28;;;5.30;;
20104;SDS011;10212;42.714;23.310;2022-08-18T09:26:37;5.07;;;4.57;;
20104;SDS011;10212;42.714;23.310;2022-08-18T09:31:45;7.88;;;5.30;;
20104;SDS011;10212;42.714;23.310;2022-08-18T09:42:36;8.40;;;5.20;;
20104;SDS011;10212;42.714;23.310;2022-08-18T09:57:41;7.33;;;4.47;;
20104;SDS011;10212;42.714;23.310;2022-08-18T10:03:00;8.95;;;4.88;;
20104;SDS011;10212;42.714;23.310;2022-08-18T10:19:14;4.80;;;4.32;;
20104;SDS011;10212;42.714;23.310;2022-08-18T10:24:13;5.25;;;4.20;;
20104;SDS011;10212;42.714;23.310;2022-08-18T10:34:38;7.55;;;4.07;;
20104;SDS011;10212;42.714;23.310;2022-08-18T10:39:50;4.10;;;3.80;;
20104;SDS011;10212;42.714;23.310;2022-08-18T10:45:07;11.05;;;5.93;;
20104;SDS011;10212;42.714;23.310;2022-08-18T10:50:20;4.30;;;3.72;;
20104;SDS011;10212;42.714;23.310;2022-08-18T11:01:05;4.32;;;3.92;;
20104;SDS011;10212;42.714;23.310;2022-08-18T11:06:08;6.05;;;3.95;;
20104;SDS011;10212;42.714;23.310;2022-08-18T11:11:12;6.97;;;4.28;;
20104;SDS011;10212;42.714;23.310;2022-08-18T11:21:39;4.43;;;3.80;;
20104;SDS011;10212;42.714;23.310;2022-08-18T11:31:58;4.50;;;4.07;;
20104;SDS011;10212;42.714;23.310;2022-08-18T11:53:41;6.10;;;4.20;;
20104;SDS011;10212;42.714;23.310;2022-08-18T11:58:58;4.45;;;3.95;;
20104;SDS011;10212;42.714;23.310;2022-08-18T12:14:49;5.57;;;4.35;;
20104;SDS011;10212;42.714;23.310;2022-08-18T12:20:20;4.72;;;4.32;;
20104;SDS011;10212;42.714;23.310;2022-08-18T12:25:21;10.23;;;4.60;;
20104;SDS011;10212;42.714;23.310;2022-08-18T12:30:22;6.32;;;4.10;;
20104;SDS011;10212;42.714;23.310;2022-08-18T12:35:22;7.40;;;4.78;;
20104;SDS011;10212;42.714;23.310;2022-08-18T12:40:23;7.82;;;4.35;;
20104;SDS011;10212;42.714;23.310;2022-08-18T12:45:23;6.63;;;4.35;;
20104;SDS011;10212;42.714;23.310;2022-08-18T12:50:25;7.33;;;4.90;;
20104;SDS011;10212;42.714;23.310;2022-08-18T12:55:26;4.50;;;4.10;;
20104;SDS011;10212;42.714;23.310;2022-08-18T13:00:30;8.32;;;4.45;;
20104;SDS011;10212;42.714;23.310;2022-08-18T13:05:31;4.88;;;4.47;;
20104;SDS011;10212;42.714;23.310;2022-08-18T13:10:33;6.78;;;4.20;;
20104;SDS011;10212;42.714;23.310;2022-08-18T13:15:34;7.45;;;4.28;;
20104;SDS011;10212;42.714;23.310;2022-08-18T13:20:36;5.70;;;4.60;;
20104;SDS011;10212;42.714;23.310;2022-08-18T13:25:36;8.40;;;4.47;;
20104;SDS011;10212;42.714;23.310;2022-08-18T13:30:38;4.55;;;4.10;;
20104;SDS011;10212;42.714;23.310;2022-08-18T13:35:38;4.82;;;4.30;;
20104;SDS011;10212;42.714;23.310;2022-08-18T13:40:39;5.40;;;4.30;;
20104;SDS011;10212;42.714;23.310;2022-08-18T13:45:40;5.90;;;4.50;;
20104;SDS011;10212;42.714;23.310;2022-08-18T13:50:43;5.90;;;4.10;;
20104;SDS011;10212;42.714;23.310;2022-08-18T13:55:45;5.13;;;4.60;;
20104;SDS011;10212;42.714;23.310;2022-08-18T14:00:46;5.25;;;4.70;;
20104;SDS011;10212;42.714;23.310;2022-08-18T14:05:51;5.32;;;4.43;;
20104;SDS011;10212;42.714;23.310;2022-08-18T14:10:58;7.60;;;4.35;;
20104;SDS011;10212;42.714;23.310;2022-08-18T14:16:00;7.45;;;4.40;;
20104;SDS011;10212;42.714;23.310;2022-08-18T14:21:00;5.53;;;4.97;;
20104;SDS011;10212;42.714;23.310;2022-08-18T14:26:20;6.07;;;4.60;;
20104;SDS011;10212;42.714;23.310;2022-08-18T14:31:39;6.32;;;4.63;;
20104;SDS011;10212;42.714;23.310;2022-08-18T14:36:40;7.05;;;4.50;;
20104;SDS011;10212;42.714;23.310;2022-08-18T14:41:41;7.90;;;4.40;;
20104;SDS011;10212;42.714;23.310;2022-08-18T14:46:41;4.60;;;4.18;;
20104;SDS011;10212;42.714;23.310;2022-08-18T14:51:45;5.05;;;4.55;;
20104;SDS011;10212;42.714;23.310;2022-08-18T14:56:46;4.53;;;3.97;;
20104;SDS011;10212;42.714;23.310;2022-08-18T15:01:48;5.97;;;4.63;;
20104;SDS011;10212;42.714;23.310;2022-08-18T15:06:48;7.18;;;4.57;;
20104;SDS011;10212;42.714;23.310;2022-08-18T15:11:49;5.30;;;4.90;;
20104;SDS011;10212;42.714;23.310;2022-08-18T15:16:50;8.45;;;4.63;;
20104;SDS011;10212;42.714;23.310;2022-08-18T15:21:51;6.65;;;5.22;;
20104;SDS011;10212;42.714;23.310;2022-08-18T15:27:10;6.15;;;5.03;;
20104;SDS011;10212;42.714;23.310;2022-08-18T15:32:10;6.28;;;4.70;;
20104;SDS011;10212;42.714;23.310;2022-08-18T15:37:14;5.75;;;4.78;;
20104;SDS011;10212;42.714;23.310;2022-08-18T15:42:16;8.53;;;5.30;;
20104;SDS011;10212;42.714;23.310;2022-08-18T15:47:16;7.05;;;4.80;;
20104;SDS011;10212;42.714;23.310;2022-08-18T15:52:17;8.43;;;4.78;;
20104;SDS011;10212;42.714;23.310;2022-08-18T15:57:17;6.30;;;4.97;;
20104;SDS011;10212;42.714;23.310;2022-08-18T16:02:18;7.95;;;5.25;;
20104;SDS011;10212;42.714;23.310;2022-08-18T16:07:18;6.22;;;4.78;;
20104;SDS011;10212;42.714;23.310;2022-08-18T16:12:19;5.53;;;4.90;;
20104;SDS011;10212;42.714;23.310;2022-08-18T16:17:20;8.20;;;5.17;;
20104;SDS011;10212;42.714;23.310;2022-08-18T16:22:21;9.80;;;5.45;;
20104;SDS011;10212;42.714;23.310;2022-08-18T16:27:22;6.10;;;5.22;;
20104;SDS011;10212;42.714;23.310;2022-08-18T16:32:22;7.22;;;5.18;;
20104;SDS011;10212;42.714;23.310;2022-08-18T16:37:23;7.88;;;4.80;;
20104;SDS011;10212;42.714;23.310;2022-08-18T16:42:25;5.70;;;5.13;;
20104;SDS011;10212;42.714;23.310;2022-08-18T16:47:30;6.80;;;4.57;;
20104;SDS011;10212;42.714;23.310;2022-08-18T16:52:38;7.68;;;4.93;;
20104;SDS011;10212;42.714;23.310;2022-08-18T16:57:42;8.93;;;5.20;;
20104;SDS011;10212;42.714;23.310;2022-08-18T17:03:04;13.77;;;4.65;;
20104;SDS011;10212;42.714;23.310;2022-08-18T17:08:24;5.80;;;4.50;;
20104;SDS011;10212;42.714;23.310;2022-08-18T17:13:25;5.65;;;4.13;;
20104;SDS011;10212;42.714;23.310;2022-08-18T17:18:25;7.05;;;5.18;;
20104;SDS011;10212;42.714;23.310;2022-08-18T17:23:26;7.85;;;5.10;;
20104;SDS011;10212;42.714;23.310;2022-08-18T17:28:30;7.97;;;4.68;;
20104;SDS011;10212;42.714;23.310;2022-08-18T17:33:39;5.72;;;4.45;;
20104;SDS011;10212;42.714;23.310;2022-08-18T17:38:45;7.43;;;5.18;;
20104;SDS011;10212;42.714;23.310;2022-08-18T17:43:53;6.38;;;4.60;;
20104;SDS011;10212;42.714;23.310;2022-08-18T17:54:10;6.00;;;5.05;;
20104;SDS011;10212;42.714;23.310;2022-08-18T17:59:33;9.32;;;5.60;;
20104;SDS011;10212;42.714;23.310;2022-08-18T18:04:41;8.75;;;5.53;;
20104;SDS011;10212;42.714;23.310;2022-08-18T18:09:42;8.02;;;5.80;;
20104;SDS011;10212;42.714;23.310;2022-08-18T18:14:54;23.00;;;17.55;;
20104;SDS011;10212;42.714;23.310;2022-08-18T18:20:09;7.93;;;5.73;;
20104;SDS011;10212;42.714;23.310;2022-08-18T18:25:30;8.70;;;6.13;;
20104;SDS011;10212;42.714;23.310;2022-08-18T18:30:32;7.10;;;6.07;;
20104;SDS011;10212;42.714;23.310;2022-08-18T18:46:27;8.17;;;5.70;;
20104;SDS011;10212;42.714;23.310;2022-08-18T18:51:37;10.70;;;6.95;;
20104;SDS011;10212;42.714;23.310;2022-08-18T18:56:44;7.85;;;5.63;;
20104;SDS011;10212;42.714;23.310;2022-08-18T19:06:57;10.25;;;5.63;;
20104;SDS011;10212;42.714;23.310;2022-08-18T19:12:23;8.32;;;5.90;;
20104;SDS011;10212;42.714;23.310;2022-08-18T19:27:52;9.13;;;6.95;;
20104;SDS011;10212;42.714;23.310;2022-08-18T19:33:00;8.52;;;5.57;;
20104;SDS011;10212;42.714;23.310;2022-08-18T19:38:49;8.25;;;6.15;;
20104;SDS011;10212;42.714;23.310;2022-08-18T19:49:23;12.18;;;6.47;;
20104;SDS011;10212;42.714;23.310;2022-08-18T20:37:05;6.00;;;5.30;;
20104;SDS011;10212;42.714;23.310;2022-08-18T20:42:27;9.23;;;6.20;;
20104;SDS011;10212;42.714;23.310;2022-08-18T20:58:22;9.18;;;5.55;;
20104;SDS011;10212;42.714;23.310;2022-08-18T21:03:38;8.45;;;5.53;;
20104;SDS011;10212;42.714;23.310;2022-08-18T21:08:44;7.32;;;5.60;;
20104;SDS011;10212;42.714;23.310;2022-08-18T21:13:48;7.80;;;5.57;;
20104;SDS011;10212;42.714;23.310;2022-08-18T21:19:34;10.85;;;5.55;;
20104;SDS011;10212;42.714;23.310;2022-08-18T21:24:28;5.82;;;4.45;;
20104;SDS011;10212;42.714;23.310;2022-08-18T21:29:28;7.25;;;4.88;;
20104;SDS011;10212;42.714;23.310;2022-08-18T21:34:33;5.97;;;4.35;;
20104;SDS011;10212;42.714;23.310;2022-08-18T21:39:48;8.00;;;5.13;;
20104;SDS011;10212;42.714;23.310;2022-08-18T21:44:55;8.52;;;7.53;;
20104;SDS011;10212;42.714;23.310;2022-08-18T21:55:20;9.40;;;5.60;;
20104;SDS011;10212;42.714;23.310;2022-08-18T22:00:26;8.82;;;5.75;;
20104;SDS011;10212;42.714;23.310;2022-08-18T22:05:36;7.55;;;5.68;;
20104;SDS011;10212;42.714;23.310;2022-08-18T22:10:39;9.05;;;5.25;;
20104;SDS011;10212;42.714;23.310;2022-08-18T22:15:58;6.30;;;4.82;;
20104;SDS011;10212;42.714;23.310;2022-08-18T22:21:32;5.23;;;4.67;;
20104;SDS011;10212;42.714;23.310;2022-08-18T22:26:40;10.55;;;5.32;;
20104;SDS011;10212;42.714;23.310;2022-08-18T22:31:42;5.68;;;4.93;;
20104;SDS011;10212;42.714;23.310;2022-08-18T22:36:47;9.18;;;4.90;;
20104;SDS011;10212;42.714;23.310;2022-08-18T22:41:59;5.13;;;4.63;;
20104;SDS011;10212;42.714;23.310;2022-08-18T22:47:00;5.15;;;4.40;;
20104;SDS011;10212;42.714;23.310;2022-08-18T22:57:24;7.57;;;4.93;;
20104;SDS011;10212;42.714;23.310;2022-08-18T23:02:25;5.07;;;4.32;;
20104;SDS011;10212;42.714;23.310;2022-08-18T23:07:26;6.00;;;4.32;;
20104;SDS011;10212;42.714;23.310;2022-08-18T23:12:27;5.30;;;4.80;;
20104;SDS011;10212;42.714;23.310;2022-08-18T23:17:27;6.07;;;4.60;;
20104;SDS011;10212;42.714;23.310;2022-08-18T23:22:28;5.80;;;5.13;;
20104;SDS011;10212;42.714;23.310;2022-08-18T23:27:29;5.97;;;4.50;;
20104;SDS011;10212;42.714;23.310;2022-08-18T23:32:30;5.38;;;4.72;;
20104;SDS011;10212;42.714;23.310;2022-08-18T23:37:32;6.47;;;4.65;;
20104;SDS011;10212;42.714;23.310;2022-08-18T23:42:32;7.63;;;5.20;;
20104;SDS011;10212;42.714;23.310;2022-08-18T23:47:33;7.23;;;5.20;;
20104;SDS011;10212;42.714;23.310;2022-08-18T23:52:33;7.43;;;5.30;;
20104;SDS011;10212;42.714;23.310;2022-08-18T23:57:34;5.30;;;4.80;;
